createdAt,value
2017-10-05T00:00:10.884Z,3.40
2017-10-05T00:02:38.393Z,3.65
2017-10-05T00:05:06.674Z,3.78
2017-10-05T00:07:35.169Z,3.87
2017-10-05T00:10:02.729Z,4.10
2017-10-05T00:12:30.263Z,3.20
2017-10-05T00:14:57.762Z,3.75
2017-10-05T00:17:25.274Z,4.68
2017-10-05T00:19:52.779Z,3.92
2017-10-05T00:22:20.293Z,4.43
2017-10-05T00:24:47.788Z,4.05
2017-10-05T00:27:15.310Z,4.00
2017-10-05T00:29:42.812Z,4.75
2017-10-05T00:32:10.326Z,4.10
2017-10-05T00:34:42.768Z,4.30
2017-10-05T00:37:10.277Z,3.90
2017-10-05T00:39:38.534Z,4.03
2017-10-05T00:42:06.056Z,3.83
2017-10-05T00:44:33.554Z,4.00
2017-10-05T00:47:01.066Z,4.60
2017-10-05T00:49:28.569Z,4.53
2017-10-05T00:51:56.091Z,6.75
2017-10-05T00:54:23.590Z,5.40
2017-10-05T00:56:52.069Z,6.68
2017-10-05T00:59:19.573Z,6.20
2017-10-05T01:01:47.090Z,5.82
2017-10-05T01:04:14.594Z,6.82
2017-10-05T01:06:42.105Z,6.25
2017-10-05T01:09:10.394Z,7.35
2017-10-05T01:11:37.911Z,7.97
2017-10-05T01:14:05.405Z,8.20
2017-10-05T01:16:32.934Z,7.57
2017-10-05T01:19:00.443Z,8.15
2017-10-05T01:21:27.958Z,8.32
2017-10-05T01:23:55.454Z,9.27
2017-10-05T01:26:23.743Z,9.13
2017-10-05T01:28:51.250Z,9.05
2017-10-05T01:31:18.782Z,10.15
2017-10-05T01:33:46.291Z,9.23
2017-10-05T01:36:13.814Z,8.68
2017-10-05T01:38:41.312Z,9.73
2017-10-05T01:41:08.842Z,9.02
2017-10-05T01:43:36.361Z,10.10
2017-10-05T01:46:03.886Z,9.82
2017-10-05T01:48:31.389Z,9.63
2017-10-05T01:50:59.107Z,9.73
2017-10-05T01:53:29.608Z,9.90
2017-10-05T01:55:57.152Z,9.40
2017-10-05T01:58:24.658Z,9.65
2017-10-05T02:00:52.194Z,9.10
2017-10-05T02:03:19.706Z,9.60
2017-10-05T02:05:47.251Z,8.40
2017-10-05T02:08:15.547Z,9.90
2017-10-05T02:10:43.103Z,8.00
2017-10-05T02:13:10.610Z,9.13
2017-10-05T02:15:38.134Z,8.90
2017-10-05T02:18:05.651Z,9.35
2017-10-05T02:20:33.926Z,8.10
2017-10-05T02:23:02.210Z,8.98
2017-10-05T02:25:29.727Z,7.87
2017-10-05T02:27:57.265Z,7.97
2017-10-05T02:30:24.774Z,7.45
2017-10-05T02:32:53.057Z,6.80
2017-10-05T02:35:20.565Z,7.30
2017-10-05T02:37:48.180Z,7.10
2017-10-05T02:40:15.702Z,7.50
2017-10-05T02:42:43.214Z,6.60
2017-10-05T02:45:10.723Z,6.28
2017-10-05T02:47:38.255Z,6.30
2017-10-05T02:50:05.742Z,6.35
2017-10-05T02:52:33.267Z,6.62
2017-10-05T02:55:00.783Z,6.00
2017-10-05T02:57:29.067Z,5.30
2017-10-05T02:59:57.339Z,5.75
2017-10-05T03:02:25.652Z,5.50
2017-10-05T03:04:53.151Z,6.40
2017-10-05T03:07:20.671Z,6.18
2017-10-05T03:09:48.173Z,5.55
2017-10-05T03:12:15.718Z,5.25
2017-10-05T03:14:43.277Z,5.10
2017-10-05T03:17:10.786Z,4.80
2017-10-05T03:19:38.273Z,4.93
2017-10-05T03:22:05.866Z,5.20
2017-10-05T03:24:33.379Z,5.05
2017-10-05T03:27:00.892Z,5.30
2017-10-05T03:29:28.467Z,4.95
2017-10-05T03:31:56.746Z,4.30
2017-10-05T03:34:25.023Z,4.60
2017-10-05T03:36:53.677Z,4.45
2017-10-05T03:39:21.199Z,4.40
2017-10-05T03:41:48.717Z,4.68
2017-10-05T03:44:16.221Z,3.85
2017-10-05T03:46:43.738Z,4.45
2017-10-05T03:49:12.022Z,4.30
2017-10-05T03:51:40.302Z,4.00
2017-10-05T03:54:08.570Z,3.58
2017-10-05T03:56:37.079Z,4.07
2017-10-05T03:59:04.591Z,4.55
2017-10-05T04:01:32.108Z,4.22
2017-10-05T04:03:59.646Z,4.30
2017-10-05T04:06:27.166Z,3.92
2017-10-05T04:08:54.686Z,3.42
2017-10-05T04:11:22.205Z,3.70
2017-10-05T04:13:50.495Z,3.70
2017-10-05T04:16:18.022Z,3.47
2017-10-05T04:18:45.526Z,3.75
2017-10-05T04:21:13.037Z,2.65
2017-10-05T04:23:40.538Z,3.10
2017-10-05T04:26:08.054Z,2.67
2017-10-05T04:28:35.557Z,2.87
2017-10-05T04:31:03.063Z,2.40
2017-10-05T04:33:30.574Z,2.70
2017-10-05T04:35:58.082Z,2.30
2017-10-05T04:38:33.236Z,2.22
2017-10-05T04:41:01.534Z,2.33
2017-10-05T04:43:30.814Z,2.10
2017-10-05T04:45:58.384Z,1.98
2017-10-05T04:48:26.673Z,2.20
2017-10-05T04:50:54.946Z,2.22
2017-10-05T04:53:23.257Z,1.92
2017-10-05T04:55:50.778Z,1.83
2017-10-05T04:58:19.063Z,1.98
2017-10-05T05:00:46.772Z,2.03
2017-10-05T05:03:14.321Z,1.75
2017-10-05T05:05:41.817Z,2.20
2017-10-05T05:08:09.342Z,2.00
2017-10-05T05:10:36.833Z,1.60
2017-10-05T05:13:05.086Z,2.15
2017-10-05T05:15:32.663Z,1.95
2017-10-05T05:18:00.252Z,1.80
2017-10-05T05:20:28.965Z,2.60
2017-10-05T05:22:56.486Z,1.90
2017-10-05T05:25:24.026Z,2.03
2017-10-05T05:27:51.586Z,1.95
2017-10-05T05:30:19.078Z,2.10
2017-10-05T05:32:47.361Z,2.00
2017-10-05T05:35:15.673Z,1.95
2017-10-05T05:37:43.191Z,1.55
2017-10-05T05:40:10.694Z,1.90
2017-10-05T05:42:38.206Z,1.80
2017-10-05T05:45:05.747Z,2.03
2017-10-05T05:47:33.274Z,2.00
2017-10-05T05:50:00.761Z,2.00
2017-10-05T05:52:28.293Z,1.87
2017-10-05T05:54:55.808Z,2.47
2017-10-05T05:57:23.338Z,1.85
2017-10-05T05:59:50.857Z,2.50
2017-10-05T06:02:18.381Z,2.28
2017-10-05T06:04:46.667Z,2.33
2017-10-05T06:07:14.948Z,1.75
2017-10-05T06:09:43.209Z,2.10
2017-10-05T06:12:10.771Z,2.17
2017-10-05T06:14:38.275Z,1.90
2017-10-05T06:17:05.798Z,1.50
2017-10-05T06:19:33.349Z,2.28
2017-10-05T06:22:00.877Z,2.08
2017-10-05T06:24:29.150Z,2.30
2017-10-05T06:26:57.429Z,1.92
2017-10-05T06:29:24.922Z,2.20
2017-10-05T06:31:52.438Z,2.10
2017-10-05T06:34:19.935Z,1.90
2017-10-05T06:36:47.441Z,2.08
2017-10-05T06:39:16.075Z,1.52
2017-10-05T06:41:43.612Z,1.70
2017-10-05T06:44:11.106Z,2.47
2017-10-05T06:46:38.601Z,1.80
2017-10-05T06:49:06.118Z,1.98
2017-10-05T06:51:33.610Z,2.10
2017-10-05T06:54:01.129Z,1.70
2017-10-05T06:56:28.638Z,2.12
2017-10-05T06:58:56.913Z,2.37
2017-10-05T07:01:24.406Z,1.83
2017-10-05T07:03:51.947Z,1.80
2017-10-05T07:06:20.209Z,1.80
2017-10-05T07:08:48.485Z,1.67
2017-10-05T07:11:16.769Z,2.17
2017-10-05T07:13:44.274Z,2.17
2017-10-05T07:16:12.554Z,1.95
2017-10-05T07:18:40.834Z,1.70
2017-10-05T07:21:09.111Z,1.80
2017-10-05T07:23:37.386Z,1.95
2017-10-05T07:26:04.879Z,1.77
2017-10-05T07:28:32.395Z,1.95
2017-10-05T07:31:00.685Z,1.50
2017-10-05T07:33:28.953Z,2.10
2017-10-05T07:35:57.243Z,2.17
2017-10-05T07:38:24.738Z,1.75
2017-10-05T07:40:52.262Z,2.03
2017-10-05T07:43:20.526Z,2.17
2017-10-05T07:45:48.062Z,1.55
2017-10-05T07:48:15.566Z,1.80
2017-10-05T07:50:43.081Z,2.03
2017-10-05T07:53:10.583Z,2.00
2017-10-05T07:55:38.099Z,1.60
2017-10-05T07:58:05.610Z,2.30
2017-10-05T08:00:33.143Z,1.83
2017-10-05T08:03:01.439Z,1.80
2017-10-05T08:05:28.956Z,1.87
2017-10-05T08:07:56.479Z,2.15
2017-10-05T08:10:24.025Z,1.77
2017-10-05T08:12:51.554Z,1.90
2017-10-05T08:15:19.059Z,1.80
2017-10-05T08:17:46.570Z,1.70
2017-10-05T08:20:14.075Z,1.58
2017-10-05T08:22:42.369Z,1.95
2017-10-05T08:25:09.872Z,1.95
2017-10-05T08:27:37.371Z,3.95
2017-10-05T08:30:04.886Z,10.15
2017-10-05T08:32:32.377Z,3.03
2017-10-05T08:35:00.651Z,2.03
2017-10-05T08:37:28.910Z,1.55
2017-10-05T08:39:56.418Z,1.55
2017-10-05T08:42:23.918Z,1.52
2017-10-05T08:44:51.446Z,1.80
2017-10-05T08:47:18.945Z,1.77
2017-10-05T08:49:46.474Z,1.85
2017-10-05T08:52:13.993Z,1.67
2017-10-05T08:54:42.281Z,1.60
2017-10-05T08:57:09.782Z,1.73
2017-10-05T08:59:37.307Z,1.37
2017-10-05T09:02:04.806Z,1.40
2017-10-05T09:04:32.333Z,1.33
2017-10-05T09:06:59.841Z,1.20
2017-10-05T09:09:27.363Z,1.08
2017-10-05T09:11:55.649Z,1.00
2017-10-05T09:14:23.171Z,0.88
2017-10-05T09:16:50.716Z,1.10
2017-10-05T09:19:18.232Z,1.40
2017-10-05T09:21:45.759Z,1.30
2017-10-05T09:24:13.296Z,1.00
2017-10-05T09:26:40.814Z,1.00
2017-10-05T09:29:08.314Z,1.12
2017-10-05T09:31:36.590Z,1.25
2017-10-05T09:34:04.111Z,1.08
2017-10-05T09:36:31.639Z,1.05
2017-10-05T09:38:59.245Z,1.02
2017-10-05T09:41:26.790Z,0.90
2017-10-05T09:43:54.285Z,0.90
2017-10-05T09:46:21.807Z,0.90
2017-10-05T09:48:49.306Z,1.42
2017-10-05T09:51:16.851Z,1.00
2017-10-05T09:53:45.110Z,1.10
2017-10-05T09:56:12.630Z,1.30
2017-10-05T09:58:40.907Z,0.82
2017-10-05T10:01:08.524Z,1.10
2017-10-05T10:03:36.121Z,1.25
2017-10-05T10:06:03.631Z,1.27
2017-10-05T10:08:31.250Z,1.37
2017-10-05T10:10:59.505Z,1.02
2017-10-05T10:13:27.082Z,1.60
2017-10-05T10:15:54.621Z,1.30
2017-10-05T10:18:22.138Z,1.15
2017-10-05T10:20:50.117Z,1.40
2017-10-05T10:23:17.634Z,0.90
2017-10-05T10:25:45.936Z,1.12
2017-10-05T10:28:13.471Z,1.10
2017-10-05T10:30:41.007Z,1.08
2017-10-05T10:33:08.551Z,1.30
2017-10-05T10:35:36.045Z,1.10
2017-10-05T10:38:03.567Z,1.17
2017-10-05T10:40:31.843Z,1.27
2017-10-05T10:43:00.102Z,1.10
2017-10-05T10:45:27.619Z,0.98
2017-10-05T10:47:55.117Z,1.12
2017-10-05T10:50:22.633Z,1.30
2017-10-05T10:52:50.163Z,0.80
2017-10-05T10:55:17.678Z,0.90
2017-10-05T10:57:45.188Z,1.40
2017-10-05T11:00:12.706Z,0.80
2017-10-05T11:02:40.202Z,1.00
2017-10-05T11:05:07.817Z,1.10
2017-10-05T11:07:35.318Z,1.12
2017-10-05T11:10:03.598Z,1.00
2017-10-05T11:12:31.874Z,1.15
2017-10-05T11:15:00.156Z,1.10
2017-10-05T11:17:27.666Z,1.20
2017-10-05T11:19:55.188Z,1.10
2017-10-05T11:22:22.681Z,0.80
2017-10-05T11:24:50.198Z,0.90
2017-10-05T11:27:17.705Z,1.30
2017-10-05T11:29:45.206Z,1.27
2017-10-05T11:32:12.734Z,1.15
2017-10-05T11:34:40.257Z,1.10
2017-10-05T11:37:07.778Z,1.10
2017-10-05T11:39:36.042Z,1.10
2017-10-05T11:42:03.586Z,1.00
2017-10-05T11:44:31.850Z,1.20
2017-10-05T11:47:00.135Z,0.95
2017-10-05T11:49:28.398Z,1.15
2017-10-05T11:51:56.690Z,1.25
2017-10-05T11:54:24.959Z,1.30
2017-10-05T11:56:53.234Z,1.30
2017-10-05T11:59:21.517Z,0.93
2017-10-05T12:01:49.786Z,1.10
2017-10-05T12:04:18.057Z,1.10
2017-10-05T12:06:45.570Z,1.05
2017-10-05T12:09:13.075Z,1.40
2017-10-05T12:11:43.301Z,1.33
2017-10-05T12:14:11.563Z,1.00
2017-10-05T12:16:39.839Z,1.48
2017-10-05T12:19:07.357Z,1.08
2017-10-05T12:21:34.866Z,1.50
2017-10-05T12:24:03.159Z,1.48
2017-10-05T12:26:31.448Z,1.27
2017-10-05T12:28:58.966Z,1.02
2017-10-05T12:31:26.531Z,1.10
2017-10-05T12:33:54.072Z,1.50
2017-10-05T12:36:21.572Z,1.65
2017-10-05T12:38:49.846Z,1.25
2017-10-05T12:41:18.118Z,1.20
2017-10-05T12:43:46.410Z,1.00
2017-10-05T12:46:13.931Z,1.40
2017-10-05T12:48:41.457Z,1.80
2017-10-05T12:51:08.950Z,1.20
2017-10-05T12:53:36.493Z,1.60
2017-10-05T12:56:03.998Z,1.10
2017-10-05T12:58:31.522Z,1.23
2017-10-05T13:00:59.056Z,1.12
2017-10-05T13:03:26.598Z,1.05
2017-10-05T13:05:54.105Z,1.35
2017-10-05T13:08:21.607Z,1.35
2017-10-05T13:10:49.126Z,1.20
2017-10-05T13:13:17.394Z,1.15
2017-10-05T13:15:44.927Z,1.52
2017-10-05T13:18:12.456Z,0.95
2017-10-05T13:20:39.989Z,0.90
2017-10-05T13:23:07.534Z,1.05
2017-10-05T13:25:35.062Z,1.00
2017-10-05T13:28:02.890Z,1.15
2017-10-05T13:30:31.182Z,1.17
2017-10-05T13:32:59.443Z,1.00
2017-10-05T13:35:26.990Z,1.20
2017-10-05T13:37:54.509Z,0.90
2017-10-05T13:40:22.055Z,0.93
2017-10-05T13:42:49.612Z,0.90
2017-10-05T13:45:17.139Z,1.30
2017-10-05T13:47:44.650Z,1.20
2017-10-05T13:50:12.151Z,1.00
2017-10-05T13:52:39.692Z,1.45
2017-10-05T13:55:07.230Z,1.40
2017-10-05T13:57:34.765Z,1.17
2017-10-05T14:00:02.263Z,0.95
2017-10-05T14:02:29.777Z,0.90
2017-10-05T14:04:58.054Z,1.85
2017-10-05T14:07:25.577Z,1.15
2017-10-05T14:09:53.091Z,1.10
2017-10-05T14:12:20.615Z,1.65
2017-10-05T14:14:48.110Z,1.12
2017-10-05T14:17:15.618Z,1.40
2017-10-05T14:19:43.134Z,1.00
2017-10-05T14:22:10.667Z,1.00
2017-10-05T14:24:38.172Z,1.10
2017-10-05T14:27:05.670Z,1.10
2017-10-05T14:29:33.967Z,1.20
2017-10-05T14:32:01.472Z,1.10
2017-10-05T14:34:29.006Z,1.27
2017-10-05T14:36:56.510Z,0.85
2017-10-05T14:39:24.051Z,1.20
2017-10-05T14:41:51.565Z,0.82
2017-10-05T14:44:19.091Z,1.25
2017-10-05T14:46:46.865Z,1.15
2017-10-05T14:49:15.165Z,1.50
2017-10-05T14:51:42.687Z,1.25
2017-10-05T14:54:10.214Z,1.02
2017-10-05T14:56:37.709Z,0.90
2017-10-05T14:59:05.506Z,1.00
2017-10-05T15:01:33.002Z,1.10
2017-10-05T15:04:00.523Z,1.15
2017-10-05T15:06:28.028Z,1.10
2017-10-05T15:08:55.563Z,0.95
2017-10-05T15:11:23.062Z,1.05
2017-10-05T15:13:51.338Z,1.05
2017-10-05T15:16:19.615Z,1.25
2017-10-05T15:18:47.117Z,1.00
2017-10-05T15:21:14.665Z,0.90
2017-10-05T15:23:42.162Z,1.20
2017-10-05T15:26:09.666Z,0.95
2017-10-05T15:28:37.178Z,2.30
2017-10-05T15:31:04.686Z,1.40
2017-10-05T15:33:32.284Z,1.17
2017-10-05T15:35:59.832Z,0.95
2017-10-05T15:38:27.361Z,1.00
2017-10-05T15:40:54.890Z,1.00
2017-10-05T15:43:22.404Z,1.02
2017-10-05T15:45:49.925Z,1.12
2017-10-05T15:48:18.181Z,1.15
2017-10-05T15:50:45.710Z,1.20
2017-10-05T15:53:13.230Z,1.10
2017-10-05T15:55:40.753Z,0.90
2017-10-05T15:58:08.268Z,1.10
2017-10-05T16:00:35.765Z,1.00
2017-10-05T16:03:03.280Z,1.30
2017-10-05T16:05:30.789Z,1.25
2017-10-05T16:07:59.071Z,1.15
2017-10-05T16:10:27.347Z,1.20
2017-10-05T16:12:55.595Z,1.33
2017-10-05T16:15:23.107Z,1.35
2017-10-05T16:17:50.677Z,1.10
2017-10-05T16:20:18.909Z,1.35
2017-10-05T16:22:46.434Z,1.25
2017-10-05T16:25:13.933Z,1.02
2017-10-05T16:27:41.470Z,1.65
2017-10-05T16:30:08.978Z,1.55
2017-10-05T16:32:36.478Z,1.05
2017-10-05T16:35:03.993Z,1.25
2017-10-05T16:37:31.505Z,1.02
2017-10-05T16:39:59.796Z,1.33
2017-10-05T16:42:27.298Z,1.15
2017-10-05T16:44:54.814Z,1.40
2017-10-05T16:47:22.323Z,1.10
2017-10-05T16:49:49.846Z,1.05
2017-10-05T16:52:17.359Z,0.90
2017-10-05T16:54:45.646Z,1.20
2017-10-05T16:57:13.180Z,0.93
2017-10-05T16:59:41.486Z,1.20
2017-10-05T17:02:08.994Z,0.90
2017-10-05T17:04:36.537Z,1.10
2017-10-05T17:07:04.058Z,0.95
2017-10-05T17:09:32.340Z,1.15
2017-10-05T17:11:59.850Z,1.20
2017-10-05T17:14:27.354Z,0.93
2017-10-05T17:16:55.667Z,1.10
2017-10-05T17:19:23.176Z,1.12
2017-10-05T17:21:51.467Z,1.30
2017-10-05T17:24:19.735Z,1.08
2017-10-05T17:26:47.258Z,24.37
2017-10-05T17:29:14.761Z,13.90
2017-10-05T17:31:42.439Z,10.35
2017-10-05T17:34:09.934Z,8.77
2017-10-05T17:36:38.224Z,3.95
2017-10-05T17:39:05.719Z,1.52
2017-10-05T17:41:33.283Z,1.50
2017-10-05T17:44:00.856Z,1.70
2017-10-05T17:46:29.171Z,1.40
2017-10-05T17:48:57.446Z,1.20
2017-10-05T17:51:25.723Z,1.42
2017-10-05T17:53:54.040Z,1.12
2017-10-05T17:56:21.533Z,1.33
2017-10-05T17:58:49.055Z,1.10
2017-10-05T18:01:16.566Z,1.30
2017-10-05T18:03:45.167Z,1.52
2017-10-05T18:06:13.617Z,1.45
2017-10-05T18:08:41.138Z,1.35
2017-10-05T18:11:08.639Z,1.17
2017-10-05T18:13:41.788Z,1.80
2017-10-05T18:16:09.294Z,1.02
2017-10-05T18:18:36.813Z,1.62
2017-10-05T18:21:04.328Z,1.30
2017-10-05T18:23:33.841Z,1.65
2017-10-05T18:26:01.338Z,1.60
2017-10-05T18:28:48.446Z,1.52
2017-10-05T18:34:15.140Z,2.00
2017-10-05T18:36:43.421Z,1.70
2017-10-05T18:39:10.943Z,1.50
2017-10-05T18:41:38.460Z,1.67
2017-10-05T18:44:08.073Z,1.85
2017-10-05T18:46:43.671Z,1.45
2017-10-05T18:49:11.202Z,1.77
2017-10-05T18:51:38.705Z,2.08
2017-10-05T18:54:06.246Z,1.20
2017-10-05T18:56:33.797Z,1.50
2017-10-05T18:59:01.295Z,1.58
2017-10-05T19:01:28.814Z,1.30
2017-10-05T19:03:56.417Z,1.62
2017-10-05T19:06:23.949Z,1.48
2017-10-05T19:08:51.472Z,1.10
2017-10-05T19:11:19.018Z,1.30
2017-10-05T19:13:46.522Z,1.48
2017-10-05T19:16:14.039Z,0.90
2017-10-05T19:18:41.562Z,1.60
2017-10-05T19:21:09.063Z,1.12
2017-10-05T19:23:36.598Z,1.30
2017-10-05T19:26:04.117Z,1.00
2017-10-05T19:28:31.678Z,1.30
2017-10-05T19:30:59.200Z,1.10
2017-10-05T19:33:26.733Z,0.98
2017-10-05T19:35:54.249Z,0.98
2017-10-05T19:38:21.825Z,1.20
2017-10-05T19:40:49.387Z,0.90
2017-10-05T19:43:18.287Z,1.62
2017-10-05T19:45:45.847Z,1.10
2017-10-05T19:48:13.417Z,1.08
2017-10-05T19:50:40.945Z,1.35
2017-10-05T19:53:08.512Z,1.20
2017-10-05T19:55:36.028Z,0.80
2017-10-05T19:58:04.311Z,1.30
2017-10-05T20:00:32.723Z,1.23
2017-10-05T20:03:00.269Z,1.00
2017-10-05T20:05:27.795Z,1.10
2017-10-05T20:07:55.339Z,1.80
2017-10-05T20:10:23.687Z,1.17
2017-10-05T20:12:51.195Z,1.65
2017-10-05T20:18:38.238Z,1.10
2017-10-05T20:21:12.215Z,1.20
2017-10-05T20:27:00.414Z,1.20
2017-10-05T20:29:33.644Z,1.60
2017-10-05T20:32:04.660Z,1.40
2017-10-05T20:34:32.179Z,1.00
2017-10-05T20:36:59.736Z,1.30
2017-10-05T20:39:27.264Z,1.30
2017-10-05T20:41:54.795Z,1.58
2017-10-05T20:44:22.315Z,1.37
2017-10-05T20:46:50.862Z,1.40
2017-10-05T20:49:18.378Z,1.25
2017-10-05T20:51:45.916Z,1.37
2017-10-05T20:54:13.476Z,1.25
2017-10-05T20:56:40.995Z,1.55
2017-10-05T20:59:08.516Z,1.45
2017-10-05T21:01:36.019Z,1.15
2017-10-05T21:04:03.541Z,1.10
2017-10-05T21:06:31.060Z,1.02
2017-10-05T21:08:58.615Z,1.10
2017-10-05T21:11:26.936Z,1.35
2017-10-05T21:13:54.471Z,1.77
2017-10-05T21:16:22.000Z,1.45
2017-10-05T21:18:49.529Z,1.48
2017-10-05T21:21:17.044Z,1.83
2017-10-05T21:23:44.558Z,1.33
2017-10-05T21:26:12.836Z,1.30
2017-10-05T21:28:42.083Z,1.27
2017-10-05T21:31:09.589Z,1.30
2017-10-05T21:33:37.101Z,1.25
2017-10-05T21:36:07.452Z,1.85
2017-10-05T21:38:34.973Z,1.02
2017-10-05T21:41:02.497Z,1.45
2017-10-05T21:43:30.774Z,1.60
2017-10-05T21:45:59.059Z,1.45
2017-10-05T21:48:26.589Z,1.20
2017-10-05T21:50:54.112Z,1.30
2017-10-05T21:53:21.648Z,1.20
2017-10-05T21:55:49.171Z,1.60
2017-10-05T21:58:16.716Z,1.23
2017-10-05T22:00:44.266Z,1.48
2017-10-05T22:03:11.827Z,2.17
2017-10-05T22:05:39.399Z,1.83
2017-10-05T22:08:06.936Z,1.45
2017-10-05T22:10:34.460Z,1.20
2017-10-05T22:13:01.982Z,1.30
2017-10-05T22:15:29.495Z,1.40
2017-10-05T22:17:57.803Z,1.33
2017-10-05T22:20:25.337Z,1.73
2017-10-05T22:22:54.026Z,1.75
2017-10-05T22:25:22.312Z,1.60
2017-10-05T22:27:50.615Z,1.50
2017-10-05T22:30:18.139Z,1.73
2017-10-05T22:32:46.451Z,1.55
2017-10-05T22:35:13.955Z,1.80
2017-10-05T22:37:41.507Z,1.75
2017-10-05T22:40:09.035Z,2.03
2017-10-05T22:42:36.667Z,2.03
2017-10-05T22:45:04.219Z,2.22
2017-10-05T22:47:32.503Z,1.80
2017-10-05T22:50:00.047Z,2.10
2017-10-05T22:52:28.322Z,1.80
2017-10-05T22:54:56.754Z,1.87
2017-10-05T22:57:24.301Z,1.80
2017-10-05T22:59:51.835Z,1.95
2017-10-05T23:02:20.117Z,2.45
2017-10-05T23:04:47.659Z,2.20
2017-10-05T23:07:15.172Z,1.77
2017-10-05T23:09:42.716Z,1.70
2017-10-05T23:12:10.236Z,1.80
2017-10-05T23:14:38.533Z,1.90
2017-10-05T23:17:06.843Z,1.60
2017-10-05T23:19:34.380Z,1.65
2017-10-05T23:22:01.910Z,1.80
2017-10-05T23:24:30.204Z,1.70
2017-10-05T23:26:57.770Z,2.25
2017-10-05T23:29:25.291Z,1.65
2017-10-05T23:31:52.828Z,1.92
2017-10-05T23:34:20.335Z,1.65
2017-10-05T23:36:48.614Z,2.10
2017-10-05T23:39:16.139Z,1.67
2017-10-05T23:41:43.656Z,2.60
2017-10-05T23:44:11.191Z,1.50
2017-10-05T23:46:38.705Z,1.77
2017-10-05T23:49:06.235Z,1.75
2017-10-05T23:51:33.756Z,2.00
2017-10-05T23:54:01.339Z,2.33
2017-10-05T23:56:28.862Z,2.28
2017-10-05T23:58:56.369Z,2.22
